sensor_id;sensor_type;location;lat;lon;timestamp;temperature;humidity
21570;DHT22;57598;50.888;4.746;2022-09-09T00:02:18;15.70;99.90
21570;DHT22;57598;50.888;4.746;2022-09-09T00:04:52;15.70;99.90
21570;DHT22;57598;50.888;4.746;2022-09-09T00:07:25;15.70;99.90
21570;DHT22;57598;50.888;4.746;2022-09-09T00:10:03;15.70;99.90
21570;DHT22;57598;50.888;4.746;2022-09-09T00:12:38;15.80;99.90
21570;DHT22;57598;50.888;4.746;2022-09-09T00:15:13;15.80;99.90
21570;DHT22;57598;50.888;4.746;2022-09-09T00:17:47;15.80;99.90
21570;DHT22;57598;50.888;4.746;2022-09-09T00:20:26;15.70;99.90
21570;DHT22;57598;50.888;4.746;2022-09-09T00:23:00;15.70;99.90
21570;DHT22;57598;50.888;4.746;2022-09-09T00:25:39;15.70;99.90
21570;DHT22;57598;50.888;4.746;2022-09-09T00:28:13;15.80;99.90
21570;DHT22;57598;50.888;4.746;2022-09-09T00:30:46;15.70;99.90
21570;DHT22;57598;50.888;4.746;2022-09-09T00:33:16;15.80;99.90
21570;DHT22;57598;50.888;4.746;2022-09-09T00:35:46;15.80;99.90
21570;DHT22;57598;50.888;4.746;2022-09-09T00:38:16;15.80;99.90
21570;DHT22;57598;50.888;4.746;2022-09-09T00:40:49;15.80;99.90
21570;DHT22;57598;50.888;4.746;2022-09-09T00:43:26;15.80;99.90
21570;DHT22;57598;50.888;4.746;2022-09-09T00:46:16;15.80;99.90
21570;DHT22;57598;50.888;4.746;2022-09-09T00:48:54;15.80;99.90
21570;DHT22;57598;50.888;4.746;2022-09-09T00:51:30;15.80;99.90
21570;DHT22;57598;50.888;4.746;2022-09-09T00:54:24;15.80;99.90
21570;DHT22;57598;50.888;4.746;2022-09-09T00:57:04;15.80;99.90
21570;DHT22;57598;50.888;4.746;2022-09-09T00:59:39;15.80;99.90
21570;DHT22;57598;50.888;4.746;2022-09-09T01:02:19;15.80;99.90
21570;DHT22;57598;50.888;4.746;2022-09-09T01:04:48;15.70;99.90
21570;DHT22;57598;50.888;4.746;2022-09-09T01:07:17;15.80;99.90
21570;DHT22;57598;50.888;4.746;2022-09-09T01:09:54;15.90;99.90
21570;DHT22;57598;50.888;4.746;2022-09-09T01:12:30;15.90;99.90
21570;DHT22;57598;50.888;4.746;2022-09-09T01:15:07;15.90;99.90
21570;DHT22;57598;50.888;4.746;2022-09-09T01:17:46;15.90;99.90
21570;DHT22;57598;50.888;4.746;2022-09-09T01:20:18;15.90;99.90
21570;DHT22;57598;50.888;4.746;2022-09-09T01:22:55;15.80;99.90
21570;DHT22;57598;50.888;4.746;2022-09-09T01:25:29;15.90;99.90
21570;DHT22;57598;50.888;4.746;2022-09-09T01:28:05;15.90;99.90
21570;DHT22;57598;50.888;4.746;2022-09-09T01:30:38;15.90;99.90
21570;DHT22;57598;50.888;4.746;2022-09-09T01:33:07;15.90;99.90
21570;DHT22;57598;50.888;4.746;2022-09-09T01:35:43;15.80;99.90
21570;DHT22;57598;50.888;4.746;2022-09-09T01:38:13;15.80;99.90
21570;DHT22;57598;50.888;4.746;2022-09-09T01:40:41;15.90;99.90
21570;DHT22;57598;50.888;4.746;2022-09-09T01:43:09;15.90;99.90
21570;DHT22;57598;50.888;4.746;2022-09-09T01:45:37;15.90;99.90
21570;DHT22;57598;50.888;4.746;2022-09-09T01:48:05;15.90;99.90
21570;DHT22;57598;50.888;4.746;2022-09-09T01:50:32;15.80;99.90
21570;DHT22;57598;50.888;4.746;2022-09-09T01:53:01;15.70;99.90
21570;DHT22;57598;50.888;4.746;2022-09-09T01:55:30;15.80;99.90
21570;DHT22;57598;50.888;4.746;2022-09-09T01:58:09;15.70;99.90
21570;DHT22;57598;50.888;4.746;2022-09-09T02:00:42;15.70;99.90
21570;DHT22;57598;50.888;4.746;2022-09-09T02:03:17;15.70;99.90
21570;DHT22;57598;50.888;4.746;2022-09-09T02:05:50;15.70;99.90
21570;DHT22;57598;50.888;4.746;2022-09-09T02:08:23;15.70;99.90
21570;DHT22;57598;50.888;4.746;2022-09-09T02:10:56;15.70;99.90
21570;DHT22;57598;50.888;4.746;2022-09-09T02:13:29;15.60;99.90
21570;DHT22;57598;50.888;4.746;2022-09-09T02:16:03;15.70;99.90
21570;DHT22;57598;50.888;4.746;2022-09-09T02:18:35;15.70;99.90
21570;DHT22;57598;50.888;4.746;2022-09-09T02:21:06;15.60;99.90
21570;DHT22;57598;50.888;4.746;2022-09-09T02:23:34;15.70;99.90
21570;DHT22;57598;50.888;4.746;2022-09-09T02:26:05;15.70;99.90
21570;DHT22;57598;50.888;4.746;2022-09-09T02:28:35;15.70;99.90
21570;DHT22;57598;50.888;4.746;2022-09-09T02:31:04;15.60;99.90
21570;DHT22;57598;50.888;4.746;2022-09-09T02:33:35;15.70;99.90
21570;DHT22;57598;50.888;4.746;2022-09-09T02:36:03;15.70;99.90
21570;DHT22;57598;50.888;4.746;2022-09-09T02:38:35;15.60;99.90
21570;DHT22;57598;50.888;4.746;2022-09-09T02:41:05;15.60;99.90
21570;DHT22;57598;50.888;4.746;2022-09-09T02:43:34;15.60;99.90
21570;DHT22;57598;50.888;4.746;2022-09-09T02:46:08;15.70;99.90
21570;DHT22;57598;50.888;4.746;2022-09-09T02:48:51;15.60;99.90
21570;DHT22;57598;50.888;4.746;2022-09-09T02:51:24;15.60;99.90
21570;DHT22;57598;50.888;4.746;2022-09-09T02:53:59;15.60;99.90
21570;DHT22;57598;50.888;4.746;2022-09-09T02:56:33;15.60;99.90
21570;DHT22;57598;50.888;4.746;2022-09-09T02:59:07;15.60;99.90
21570;DHT22;57598;50.888;4.746;2022-09-09T03:01:34;15.60;99.90
21570;DHT22;57598;50.888;4.746;2022-09-09T03:04:01;15.60;99.90
21570;DHT22;57598;50.888;4.746;2022-09-09T03:06:30;15.60;99.90
21570;DHT22;57598;50.888;4.746;2022-09-09T03:08:57;15.60;99.90
21570;DHT22;57598;50.888;4.746;2022-09-09T03:11:26;15.60;99.90
21570;DHT22;57598;50.888;4.746;2022-09-09T03:13:54;15.60;99.90
21570;DHT22;57598;50.888;4.746;2022-09-09T03:16:23;15.60;99.90
21570;DHT22;57598;50.888;4.746;2022-09-09T03:18:50;15.60;99.90
21570;DHT22;57598;50.888;4.746;2022-09-09T03:21:17;15.60;99.90
21570;DHT22;57598;50.888;4.746;2022-09-09T03:23:45;15.60;99.90
21570;DHT22;57598;50.888;4.746;2022-09-09T03:26:12;15.60;99.90
21570;DHT22;57598;50.888;4.746;2022-09-09T03:28:40;15.70;99.90
21570;DHT22;57598;50.888;4.746;2022-09-09T03:31:07;15.60;99.90
21570;DHT22;57598;50.888;4.746;2022-09-09T03:33:37;15.60;99.90
21570;DHT22;57598;50.888;4.746;2022-09-09T03:36:05;15.60;99.90
21570;DHT22;57598;50.888;4.746;2022-09-09T03:38:33;15.60;99.90
21570;DHT22;57598;50.888;4.746;2022-09-09T03:41:00;15.60;99.90
21570;DHT22;57598;50.888;4.746;2022-09-09T03:43:28;15.50;99.90
21570;DHT22;57598;50.888;4.746;2022-09-09T03:45:56;15.50;99.90
21570;DHT22;57598;50.888;4.746;2022-09-09T03:48:23;15.50;99.90
21570;DHT22;57598;50.888;4.746;2022-09-09T03:50:53;15.50;99.90
21570;DHT22;57598;50.888;4.746;2022-09-09T03:53:23;15.60;99.90
21570;DHT22;57598;50.888;4.746;2022-09-09T03:55:52;15.50;99.90
21570;DHT22;57598;50.888;4.746;2022-09-09T03:58:21;15.50;99.90
21570;DHT22;57598;50.888;4.746;2022-09-09T04:00:59;15.50;99.90
21570;DHT22;57598;50.888;4.746;2022-09-09T04:03:27;15.50;99.90
21570;DHT22;57598;50.888;4.746;2022-09-09T04:05:58;15.50;99.90
21570;DHT22;57598;50.888;4.746;2022-09-09T04:08:25;15.50;99.90
21570;DHT22;57598;50.888;4.746;2022-09-09T04:10:53;15.40;99.90
21570;DHT22;57598;50.888;4.746;2022-09-09T04:13:25;15.40;99.90
21570;DHT22;57598;50.888;4.746;2022-09-09T04:15:53;15.40;99.90
21570;DHT22;57598;50.888;4.746;2022-09-09T04:18:21;15.40;99.90
21570;DHT22;57598;50.888;4.746;2022-09-09T04:20:48;15.40;99.90
21570;DHT22;57598;50.888;4.746;2022-09-09T04:23:17;15.40;99.90
21570;DHT22;57598;50.888;4.746;2022-09-09T04:25:46;15.40;99.90
21570;DHT22;57598;50.888;4.746;2022-09-09T04:28:13;15.40;99.90
21570;DHT22;57598;50.888;4.746;2022-09-09T04:30:41;15.40;99.90
21570;DHT22;57598;50.888;4.746;2022-09-09T04:33:08;15.40;99.90
21570;DHT22;57598;50.888;4.746;2022-09-09T04:35:36;15.40;99.90
21570;DHT22;57598;50.888;4.746;2022-09-09T04:38:03;15.50;99.90
21570;DHT22;57598;50.888;4.746;2022-09-09T04:40:34;15.50;99.90
21570;DHT22;57598;50.888;4.746;2022-09-09T04:43:02;15.50;99.90
21570;DHT22;57598;50.888;4.746;2022-09-09T04:45:30;15.50;99.90
21570;DHT22;57598;50.888;4.746;2022-09-09T04:47:58;15.50;99.90
21570;DHT22;57598;50.888;4.746;2022-09-09T04:50:25;15.50;99.90
21570;DHT22;57598;50.888;4.746;2022-09-09T04:52:52;15.50;99.90
21570;DHT22;57598;50.888;4.746;2022-09-09T04:55:19;15.50;99.90
21570;DHT22;57598;50.888;4.746;2022-09-09T04:57:47;15.50;99.90
21570;DHT22;57598;50.888;4.746;2022-09-09T05:00:15;15.50;99.90
21570;DHT22;57598;50.888;4.746;2022-09-09T05:02:42;15.50;99.90
21570;DHT22;57598;50.888;4.746;2022-09-09T05:05:09;15.40;99.90
21570;DHT22;57598;50.888;4.746;2022-09-09T05:07:36;15.50;99.90
21570;DHT22;57598;50.888;4.746;2022-09-09T05:10:04;15.40;99.90
21570;DHT22;57598;50.888;4.746;2022-09-09T05:12:31;15.40;99.90
21570;DHT22;57598;50.888;4.746;2022-09-09T05:15:00;15.40;99.90
21570;DHT22;57598;50.888;4.746;2022-09-09T05:17:27;15.40;99.90
21570;DHT22;57598;50.888;4.746;2022-09-09T05:19:54;15.50;99.90
21570;DHT22;57598;50.888;4.746;2022-09-09T05:22:21;15.40;99.90
21570;DHT22;57598;50.888;4.746;2022-09-09T05:24:49;15.40;99.90
21570;DHT22;57598;50.888;4.746;2022-09-09T05:27:17;15.40;99.90
21570;DHT22;57598;50.888;4.746;2022-09-09T05:29:45;15.40;99.90
21570;DHT22;57598;50.888;4.746;2022-09-09T05:32:13;15.50;99.90
21570;DHT22;57598;50.888;4.746;2022-09-09T05:34:41;15.50;99.90
21570;DHT22;57598;50.888;4.746;2022-09-09T05:37:08;15.60;99.90
21570;DHT22;57598;50.888;4.746;2022-09-09T05:39:35;15.70;99.90
21570;DHT22;57598;50.888;4.746;2022-09-09T05:42:04;15.70;99.90
21570;DHT22;57598;50.888;4.746;2022-09-09T05:44:31;15.80;99.90
21570;DHT22;57598;50.888;4.746;2022-09-09T05:46:58;15.80;99.90
21570;DHT22;57598;50.888;4.746;2022-09-09T05:49:27;15.80;99.90
21570;DHT22;57598;50.888;4.746;2022-09-09T05:51:54;15.80;99.90
21570;DHT22;57598;50.888;4.746;2022-09-09T05:54:21;15.80;99.90
21570;DHT22;57598;50.888;4.746;2022-09-09T05:56:48;16.00;99.90
21570;DHT22;57598;50.888;4.746;2022-09-09T05:59:16;16.10;99.90
21570;DHT22;57598;50.888;4.746;2022-09-09T06:01:43;16.20;99.90
21570;DHT22;57598;50.888;4.746;2022-09-09T06:04:10;16.30;99.90
21570;DHT22;57598;50.888;4.746;2022-09-09T06:06:39;16.40;99.90
21570;DHT22;57598;50.888;4.746;2022-09-09T06:09:08;16.40;99.90
21570;DHT22;57598;50.888;4.746;2022-09-09T06:11:37;16.40;99.90
21570;DHT22;57598;50.888;4.746;2022-09-09T06:14:05;16.40;99.90
21570;DHT22;57598;50.888;4.746;2022-09-09T06:16:32;16.40;99.90
21570;DHT22;57598;50.888;4.746;2022-09-09T06:19:00;16.40;99.90
21570;DHT22;57598;50.888;4.746;2022-09-09T06:21:29;16.40;99.90
21570;DHT22;57598;50.888;4.746;2022-09-09T06:23:58;16.30;99.90
21570;DHT22;57598;50.888;4.746;2022-09-09T06:26:26;16.30;99.90
21570;DHT22;57598;50.888;4.746;2022-09-09T06:28:55;16.30;99.90
21570;DHT22;57598;50.888;4.746;2022-09-09T06:31:25;16.30;99.90
21570;DHT22;57598;50.888;4.746;2022-09-09T06:33:54;16.40;99.90
21570;DHT22;57598;50.888;4.746;2022-09-09T06:36:22;16.50;99.90
21570;DHT22;57598;50.888;4.746;2022-09-09T06:38:50;16.50;99.90
21570;DHT22;57598;50.888;4.746;2022-09-09T06:41:21;16.60;99.90
21570;DHT22;57598;50.888;4.746;2022-09-09T06:43:48;16.60;99.90
21570;DHT22;57598;50.888;4.746;2022-09-09T06:46:17;16.60;99.90
21570;DHT22;57598;50.888;4.746;2022-09-09T06:48:44;16.70;99.90
21570;DHT22;57598;50.888;4.746;2022-09-09T06:51:13;16.90;99.90
21570;DHT22;57598;50.888;4.746;2022-09-09T06:53:41;17.00;99.90
21570;DHT22;57598;50.888;4.746;2022-09-09T06:56:22;17.00;99.90
21570;DHT22;57598;50.888;4.746;2022-09-09T06:58:50;17.10;99.90
21570;DHT22;57598;50.888;4.746;2022-09-09T07:01:19;17.00;99.90
21570;DHT22;57598;50.888;4.746;2022-09-09T07:03:48;17.00;99.90
21570;DHT22;57598;50.888;4.746;2022-09-09T07:06:17;17.00;99.90
21570;DHT22;57598;50.888;4.746;2022-09-09T07:08:49;17.00;99.90
21570;DHT22;57598;50.888;4.746;2022-09-09T07:11:17;17.00;99.90
21570;DHT22;57598;50.888;4.746;2022-09-09T07:13:45;17.00;99.90
21570;DHT22;57598;50.888;4.746;2022-09-09T07:16:16;16.90;99.90
21570;DHT22;57598;50.888;4.746;2022-09-09T07:18:44;17.00;99.90
21570;DHT22;57598;50.888;4.746;2022-09-09T07:21:12;17.00;99.90
21570;DHT22;57598;50.888;4.746;2022-09-09T07:23:40;17.00;99.90
21570;DHT22;57598;50.888;4.746;2022-09-09T07:26:08;17.00;99.90
21570;DHT22;57598;50.888;4.746;2022-09-09T07:28:36;16.90;99.90
21570;DHT22;57598;50.888;4.746;2022-09-09T07:31:05;17.00;99.90
21570;DHT22;57598;50.888;4.746;2022-09-09T07:33:34;17.00;99.90
21570;DHT22;57598;50.888;4.746;2022-09-09T07:36:06;17.10;99.90
21570;DHT22;57598;50.888;4.746;2022-09-09T07:38:38;17.10;99.90
21570;DHT22;57598;50.888;4.746;2022-09-09T07:41:07;17.10;99.90
21570;DHT22;57598;50.888;4.746;2022-09-09T07:43:38;17.10;99.90
21570;DHT22;57598;50.888;4.746;2022-09-09T07:46:07;17.00;99.90
21570;DHT22;57598;50.888;4.746;2022-09-09T07:48:34;17.00;99.90
21570;DHT22;57598;50.888;4.746;2022-09-09T07:51:06;17.10;99.90
21570;DHT22;57598;50.888;4.746;2022-09-09T07:53:34;17.00;99.90
21570;DHT22;57598;50.888;4.746;2022-09-09T07:56:05;17.00;99.90
21570;DHT22;57598;50.888;4.746;2022-09-09T07:58:32;17.00;99.90
21570;DHT22;57598;50.888;4.746;2022-09-09T08:00:59;17.00;99.90
21570;DHT22;57598;50.888;4.746;2022-09-09T08:03:27;17.00;99.90
21570;DHT22;57598;50.888;4.746;2022-09-09T08:06:00;17.20;99.90
21570;DHT22;57598;50.888;4.746;2022-09-09T08:08:28;17.30;99.90
21570;DHT22;57598;50.888;4.746;2022-09-09T08:11:02;17.50;99.90
21570;DHT22;57598;50.888;4.746;2022-09-09T08:13:29;17.50;99.90
21570;DHT22;57598;50.888;4.746;2022-09-09T08:16:04;17.50;99.90
21570;DHT22;57598;50.888;4.746;2022-09-09T08:18:32;17.60;99.90
21570;DHT22;57598;50.888;4.746;2022-09-09T08:21:05;17.60;99.90
21570;DHT22;57598;50.888;4.746;2022-09-09T08:23:32;17.50;99.90
21570;DHT22;57598;50.888;4.746;2022-09-09T08:26:04;17.60;99.90
21570;DHT22;57598;50.888;4.746;2022-09-09T08:28:31;17.70;99.90
21570;DHT22;57598;50.888;4.746;2022-09-09T08:31:08;17.90;99.90
21570;DHT22;57598;50.888;4.746;2022-09-09T08:33:37;17.90;99.90
21570;DHT22;57598;50.888;4.746;2022-09-09T08:36:05;18.00;99.90
21570;DHT22;57598;50.888;4.746;2022-09-09T08:38:32;18.10;99.90
21570;DHT22;57598;50.888;4.746;2022-09-09T08:41:12;18.20;99.90
21570;DHT22;57598;50.888;4.746;2022-09-09T08:43:46;18.20;99.90
21570;DHT22;57598;50.888;4.746;2022-09-09T08:46:19;18.20;99.90
21570;DHT22;57598;50.888;4.746;2022-09-09T08:48:57;18.20;99.90
21570;DHT22;57598;50.888;4.746;2022-09-09T08:51:28;18.00;99.90
21570;DHT22;57598;50.888;4.746;2022-09-09T08:54:00;17.90;99.90
21570;DHT22;57598;50.888;4.746;2022-09-09T08:56:31;17.90;99.90
21570;DHT22;57598;50.888;4.746;2022-09-09T08:59:01;17.90;99.90
21570;DHT22;57598;50.888;4.746;2022-09-09T09:01:41;17.80;99.90
21570;DHT22;57598;50.888;4.746;2022-09-09T09:04:28;17.50;99.90
21570;DHT22;57598;50.888;4.746;2022-09-09T09:07:05;17.30;99.90
21570;DHT22;57598;50.888;4.746;2022-09-09T09:09:39;17.00;99.90
21570;DHT22;57598;50.888;4.746;2022-09-09T09:12:16;16.70;99.90
21570;DHT22;57598;50.888;4.746;2022-09-09T09:14:47;16.70;99.90
21570;DHT22;57598;50.888;4.746;2022-09-09T09:17:16;16.70;99.90
21570;DHT22;57598;50.888;4.746;2022-09-09T09:19:47;16.70;99.90
21570;DHT22;57598;50.888;4.746;2022-09-09T09:22:18;16.70;99.90
21570;DHT22;57598;50.888;4.746;2022-09-09T09:24:51;16.70;99.90
21570;DHT22;57598;50.888;4.746;2022-09-09T09:27:25;16.60;99.90
21570;DHT22;57598;50.888;4.746;2022-09-09T09:29:57;16.70;99.90
21570;DHT22;57598;50.888;4.746;2022-09-09T09:32:26;16.70;99.90
21570;DHT22;57598;50.888;4.746;2022-09-09T09:34:57;16.70;99.90
21570;DHT22;57598;50.888;4.746;2022-09-09T09:37:30;16.60;99.90
21570;DHT22;57598;50.888;4.746;2022-09-09T09:40:08;16.70;99.90
21570;DHT22;57598;50.888;4.746;2022-09-09T09:42:36;16.70;99.90
21570;DHT22;57598;50.888;4.746;2022-09-09T09:45:17;16.60;99.90
21570;DHT22;57598;50.888;4.746;2022-09-09T09:47:56;16.70;99.90
21570;DHT22;57598;50.888;4.746;2022-09-09T09:50:25;16.70;99.90
21570;DHT22;57598;50.888;4.746;2022-09-09T09:52:56;16.70;99.90
21570;DHT22;57598;50.888;4.746;2022-09-09T09:55:24;16.70;99.90
21570;DHT22;57598;50.888;4.746;2022-09-09T09:57:53;16.70;99.90
21570;DHT22;57598;50.888;4.746;2022-09-09T10:00:22;16.70;99.90
21570;DHT22;57598;50.888;4.746;2022-09-09T10:02:50;16.70;99.90
21570;DHT22;57598;50.888;4.746;2022-09-09T10:05:20;16.70;99.90
21570;DHT22;57598;50.888;4.746;2022-09-09T10:08:00;16.70;99.90
21570;DHT22;57598;50.888;4.746;2022-09-09T10:10:46;16.70;99.90
21570;DHT22;57598;50.888;4.746;2022-09-09T10:13:19;16.70;99.90
21570;DHT22;57598;50.888;4.746;2022-09-09T10:15:59;16.80;99.90
21570;DHT22;57598;50.888;4.746;2022-09-09T10:18:42;16.80;99.90
21570;DHT22;57598;50.888;4.746;2022-09-09T10:21:20;16.90;99.90
21570;DHT22;57598;50.888;4.746;2022-09-09T10:24:04;16.90;99.90
21570;DHT22;57598;50.888;4.746;2022-09-09T10:26:40;16.80;99.90
21570;DHT22;57598;50.888;4.746;2022-09-09T10:29:22;16.80;99.90
21570;DHT22;57598;50.888;4.746;2022-09-09T10:31:59;16.80;99.90
21570;DHT22;57598;50.888;4.746;2022-09-09T10:34:41;16.70;99.90
21570;DHT22;57598;50.888;4.746;2022-09-09T10:37:19;16.70;99.90
21570;DHT22;57598;50.888;4.746;2022-09-09T10:39:51;16.70;99.90
21570;DHT22;57598;50.888;4.746;2022-09-09T10:42:26;16.80;99.90
21570;DHT22;57598;50.888;4.746;2022-09-09T10:45:06;16.80;99.90
21570;DHT22;57598;50.888;4.746;2022-09-09T10:47:58;16.90;99.90
21570;DHT22;57598;50.888;4.746;2022-09-09T10:50:40;16.80;99.90
21570;DHT22;57598;50.888;4.746;2022-09-09T10:53:17;16.80;99.90
21570;DHT22;57598;50.888;4.746;2022-09-09T10:55:52;16.90;99.90
21570;DHT22;57598;50.888;4.746;2022-09-09T10:58:23;16.90;99.90
21570;DHT22;57598;50.888;4.746;2022-09-09T11:00:54;16.90;99.90
21570;DHT22;57598;50.888;4.746;2022-09-09T11:03:26;16.90;99.90
21570;DHT22;57598;50.888;4.746;2022-09-09T11:05:57;16.90;99.90
21570;DHT22;57598;50.888;4.746;2022-09-09T11:08:28;17.00;99.90
21570;DHT22;57598;50.888;4.746;2022-09-09T11:11:00;17.10;99.90
21570;DHT22;57598;50.888;4.746;2022-09-09T11:13:34;17.20;99.90
21570;DHT22;57598;50.888;4.746;2022-09-09T11:16:16;17.30;99.90
21570;DHT22;57598;50.888;4.746;2022-09-09T11:18:45;17.40;99.90
21570;DHT22;57598;50.888;4.746;2022-09-09T11:21:17;17.50;99.90
21570;DHT22;57598;50.888;4.746;2022-09-09T11:23:52;17.60;99.90
21570;DHT22;57598;50.888;4.746;2022-09-09T11:26:30;17.70;99.90
21570;DHT22;57598;50.888;4.746;2022-09-09T11:29:08;17.70;99.90
21570;DHT22;57598;50.888;4.746;2022-09-09T11:31:44;17.80;99.90
21570;DHT22;57598;50.888;4.746;2022-09-09T11:34:23;18.00;99.90
21570;DHT22;57598;50.888;4.746;2022-09-09T11:37:08;18.20;99.90
21570;DHT22;57598;50.888;4.746;2022-09-09T11:39:59;18.30;99.90
21570;DHT22;57598;50.888;4.746;2022-09-09T11:42:32;18.70;99.90
21570;DHT22;57598;50.888;4.746;2022-09-09T11:45:09;19.50;99.90
21570;DHT22;57598;50.888;4.746;2022-09-09T11:47:38;19.80;99.90
21570;DHT22;57598;50.888;4.746;2022-09-09T11:50:10;19.70;99.90
21570;DHT22;57598;50.888;4.746;2022-09-09T11:52:40;19.70;99.90
21570;DHT22;57598;50.888;4.746;2022-09-09T11:55:09;19.80;99.90
21570;DHT22;57598;50.888;4.746;2022-09-09T11:57:39;19.60;99.90
21570;DHT22;57598;50.888;4.746;2022-09-09T12:02:49;19.90;99.90
21570;DHT22;57598;50.888;4.746;2022-09-09T12:05:16;19.60;99.90
21570;DHT22;57598;50.888;4.746;2022-09-09T12:07:50;19.30;99.90
21570;DHT22;57598;50.888;4.746;2022-09-09T12:10:23;19.40;99.90
21570;DHT22;57598;50.888;4.746;2022-09-09T12:12:52;19.40;99.90
21570;DHT22;57598;50.888;4.746;2022-09-09T12:15:22;19.60;99.90
21570;DHT22;57598;50.888;4.746;2022-09-09T12:17:51;19.90;99.90
21570;DHT22;57598;50.888;4.746;2022-09-09T12:20:21;20.10;99.90
21570;DHT22;57598;50.888;4.746;2022-09-09T12:23:10;20.10;99.90
21570;DHT22;57598;50.888;4.746;2022-09-09T12:25:51;19.80;99.90
21570;DHT22;57598;50.888;4.746;2022-09-09T12:28:24;19.60;99.90
21570;DHT22;57598;50.888;4.746;2022-09-09T12:30:58;19.50;99.90
21570;DHT22;57598;50.888;4.746;2022-09-09T12:33:34;19.50;99.90
21570;DHT22;57598;50.888;4.746;2022-09-09T12:36:03;19.60;99.90
21570;DHT22;57598;50.888;4.746;2022-09-09T12:38:34;19.70;99.90
21570;DHT22;57598;50.888;4.746;2022-09-09T12:41:01;19.70;99.90
21570;DHT22;57598;50.888;4.746;2022-09-09T12:43:30;19.90;99.90
21570;DHT22;57598;50.888;4.746;2022-09-09T12:45:59;19.90;99.90
21570;DHT22;57598;50.888;4.746;2022-09-09T12:48:34;19.90;99.90
21570;DHT22;57598;50.888;4.746;2022-09-09T12:51:04;20.10;99.90
21570;DHT22;57598;50.888;4.746;2022-09-09T12:53:34;20.10;99.90
21570;DHT22;57598;50.888;4.746;2022-09-09T12:56:05;20.00;99.90
21570;DHT22;57598;50.888;4.746;2022-09-09T12:58:36;20.10;99.90
21570;DHT22;57598;50.888;4.746;2022-09-09T13:01:06;19.90;99.90
21570;DHT22;57598;50.888;4.746;2022-09-09T13:03:44;19.80;99.90
21570;DHT22;57598;50.888;4.746;2022-09-09T13:06:19;19.90;99.90
21570;DHT22;57598;50.888;4.746;2022-09-09T13:08:48;20.00;99.90
21570;DHT22;57598;50.888;4.746;2022-09-09T13:11:17;20.60;99.90
21570;DHT22;57598;50.888;4.746;2022-09-09T13:13:52;21.40;99.90
21570;DHT22;57598;50.888;4.746;2022-09-09T13:16:22;21.50;99.90
21570;DHT22;57598;50.888;4.746;2022-09-09T13:18:49;21.00;99.90
21570;DHT22;57598;50.888;4.746;2022-09-09T13:21:17;20.90;99.90
21570;DHT22;57598;50.888;4.746;2022-09-09T13:23:49;20.80;99.90
21570;DHT22;57598;50.888;4.746;2022-09-09T13:26:22;21.00;99.90
21570;DHT22;57598;50.888;4.746;2022-09-09T13:28:52;21.70;99.90
21570;DHT22;57598;50.888;4.746;2022-09-09T13:31:22;22.20;99.90
21570;DHT22;57598;50.888;4.746;2022-09-09T13:33:49;22.10;99.90
21570;DHT22;57598;50.888;4.746;2022-09-09T13:36:28;22.10;99.90
21570;DHT22;57598;50.888;4.746;2022-09-09T13:38:57;22.00;99.90
21570;DHT22;57598;50.888;4.746;2022-09-09T13:41:29;21.80;99.90
21570;DHT22;57598;50.888;4.746;2022-09-09T13:43:59;21.50;99.90
21570;DHT22;57598;50.888;4.746;2022-09-09T13:46:33;21.70;99.90
21570;DHT22;57598;50.888;4.746;2022-09-09T13:49:00;21.60;99.90
21570;DHT22;57598;50.888;4.746;2022-09-09T13:51:35;21.60;99.90
21570;DHT22;57598;50.888;4.746;2022-09-09T13:54:03;21.80;99.90
21570;DHT22;57598;50.888;4.746;2022-09-09T13:56:31;22.00;99.90
21570;DHT22;57598;50.888;4.746;2022-09-09T13:59:00;22.10;99.90
21570;DHT22;57598;50.888;4.746;2022-09-09T14:01:27;21.60;99.90
21570;DHT22;57598;50.888;4.746;2022-09-09T14:03:54;21.40;99.90
21570;DHT22;57598;50.888;4.746;2022-09-09T14:06:21;21.20;99.90
21570;DHT22;57598;50.888;4.746;2022-09-09T14:08:50;21.10;99.90
21570;DHT22;57598;50.888;4.746;2022-09-09T14:11:18;21.00;99.90
21570;DHT22;57598;50.888;4.746;2022-09-09T14:13:45;21.10;99.90
21570;DHT22;57598;50.888;4.746;2022-09-09T14:16:13;21.30;99.90
21570;DHT22;57598;50.888;4.746;2022-09-09T14:18:40;21.70;99.90
21570;DHT22;57598;50.888;4.746;2022-09-09T14:21:08;21.90;99.90
21570;DHT22;57598;50.888;4.746;2022-09-09T14:23:35;22.20;99.90
21570;DHT22;57598;50.888;4.746;2022-09-09T14:26:03;22.10;99.90
21570;DHT22;57598;50.888;4.746;2022-09-09T14:28:31;21.80;99.90
21570;DHT22;57598;50.888;4.746;2022-09-09T14:30:59;21.60;99.90
21570;DHT22;57598;50.888;4.746;2022-09-09T14:33:28;21.30;99.90
21570;DHT22;57598;50.888;4.746;2022-09-09T14:35:56;21.30;99.90
21570;DHT22;57598;50.888;4.746;2022-09-09T14:38:24;21.30;99.90
21570;DHT22;57598;50.888;4.746;2022-09-09T14:40:51;21.50;99.90
21570;DHT22;57598;50.888;4.746;2022-09-09T14:43:18;21.50;99.90
21570;DHT22;57598;50.888;4.746;2022-09-09T14:45:45;21.70;99.90
21570;DHT22;57598;50.888;4.746;2022-09-09T14:48:13;21.40;99.90
21570;DHT22;57598;50.888;4.746;2022-09-09T14:50:41;21.20;99.90
21570;DHT22;57598;50.888;4.746;2022-09-09T14:53:09;21.10;99.90
21570;DHT22;57598;50.888;4.746;2022-09-09T14:55:36;21.00;99.90
21570;DHT22;57598;50.888;4.746;2022-09-09T14:58:04;21.00;99.90
21570;DHT22;57598;50.888;4.746;2022-09-09T15:00:32;20.90;99.90
21570;DHT22;57598;50.888;4.746;2022-09-09T15:02:59;21.00;99.90
21570;DHT22;57598;50.888;4.746;2022-09-09T15:05:26;21.20;99.90
21570;DHT22;57598;50.888;4.746;2022-09-09T15:07:55;21.70;99.90
21570;DHT22;57598;50.888;4.746;2022-09-09T15:10:22;21.90;99.90
21570;DHT22;57598;50.888;4.746;2022-09-09T15:12:49;21.90;99.90
21570;DHT22;57598;50.888;4.746;2022-09-09T15:15:16;21.90;99.90
21570;DHT22;57598;50.888;4.746;2022-09-09T15:17:43;22.00;99.90
21570;DHT22;57598;50.888;4.746;2022-09-09T15:20:10;22.20;99.90
21570;DHT22;57598;50.888;4.746;2022-09-09T15:22:37;22.40;99.90
21570;DHT22;57598;50.888;4.746;2022-09-09T15:25:06;22.60;99.90
21570;DHT22;57598;50.888;4.746;2022-09-09T15:27:33;22.70;99.90
21570;DHT22;57598;50.888;4.746;2022-09-09T15:30:01;22.50;99.90
21570;DHT22;57598;50.888;4.746;2022-09-09T15:32:28;22.30;99.90
21570;DHT22;57598;50.888;4.746;2022-09-09T15:34:55;22.30;99.90
21570;DHT22;57598;50.888;4.746;2022-09-09T15:37:22;22.30;99.90
21570;DHT22;57598;50.888;4.746;2022-09-09T15:39:49;21.90;99.90
21570;DHT22;57598;50.888;4.746;2022-09-09T15:42:18;21.60;99.90
21570;DHT22;57598;50.888;4.746;2022-09-09T15:44:45;21.70;99.90
21570;DHT22;57598;50.888;4.746;2022-09-09T15:47:12;22.30;99.90
21570;DHT22;57598;50.888;4.746;2022-09-09T15:49:40;22.80;99.90
21570;DHT22;57598;50.888;4.746;2022-09-09T15:52:09;22.70;99.90
21570;DHT22;57598;50.888;4.746;2022-09-09T15:54:36;22.40;99.90
21570;DHT22;57598;50.888;4.746;2022-09-09T15:57:06;21.90;99.90